Time;durP1;ratioP1;P1;durP2;ratioP2;P2;SDS_P1;SDS_P2;PMS_P1;PMS_P2;Temp;Humidity;BMP_temperature;BMP_pressure;BME280_temperature;BME280_humidity;BME280_pressure;Samples;Min_cycle;Max_cycle;Signal;HPM_P1;HPM_P2
2022/05/30 00:00:58;;;;;;;8.97;5.60;;;4.40;99.90;;;;;;5134314;28;20236;-71
2022/05/30 00:03:24;;;;;;;8.30;6.10;;;4.40;99.90;;;;;;5134349;28;20235;-72
2022/05/30 00:05:51;;;;;;;9.63;7.13;;;4.40;99.90;;;;;;5133508;27;20197;-71
2022/05/30 00:08:19;;;;;;;8.80;6.73;;;4.40;99.90;;;;;;5137245;27;20209;-72
2022/05/30 00:10:46;;;;;;;9.70;6.97;;;4.40;99.90;;;;;;5136890;27;20619;-73
2022/05/30 00:13:14;;;;;;;9.17;6.07;;;4.20;99.90;;;;;;5136994;27;20228;-72
2022/05/30 00:15:41;;;;;;;9.03;5.90;;;4.20;99.90;;;;;;5136697;27;20275;-73
2022/05/30 00:18:12;;;;;;;8.27;6.93;;;4.20;99.90;;;;;;5136700;27;20237;-72
2022/05/30 00:20:43;;;;;;;8.60;6.43;;;4.20;99.90;;;;;;5136764;27;20250;-73
2022/05/30 00:23:09;;;;;;;8.47;6.20;;;4.20;99.90;;;;;;5136711;27;20244;-72
2022/05/30 00:25:39;;;;;;;9.93;6.23;;;4.10;99.90;;;;;;5136569;27;20201;-72
2022/05/30 00:28:06;;;;;;;8.10;6.30;;;4.10;99.90;;;;;;5136454;27;20229;-72
2022/05/30 00:30:32;;;;;;;8.93;6.60;;;4.00;99.90;;;;;;5136539;27;20276;-73
2022/05/30 00:32:59;;;;;;;7.50;6.50;;;4.00;99.90;;;;;;5136244;27;20651;-72
2022/05/30 00:35:27;;;;;;;7.80;6.17;;;3.90;99.90;;;;;;5136423;27;20724;-72
2022/05/30 00:37:54;;;;;;;13.27;6.77;;;3.80;99.90;;;;;;5136494;27;20192;-72
2022/05/30 00:40:21;;;;;;;8.87;6.90;;;3.80;99.90;;;;;;5136372;27;20722;-72
2022/05/30 00:42:47;;;;;;;8.63;6.47;;;3.70;99.90;;;;;;5136297;27;20261;-72
2022/05/30 00:45:14;;;;;;;7.80;6.30;;;3.80;99.90;;;;;;5135957;27;20240;-73
2022/05/30 00:47:41;;;;;;;7.37;5.80;;;4.00;99.90;;;;;;5136244;27;20191;-72
2022/05/30 00:50:10;;;;;;;8.03;6.40;;;4.00;99.90;;;;;;5135906;27;20262;-73
2022/05/30 00:52:40;;;;;;;8.83;6.00;;;3.90;99.90;;;;;;5135940;27;20211;-73
2022/05/30 00:55:10;;;;;;;9.07;6.33;;;3.90;99.90;;;;;;5135961;27;20208;-72
2022/05/30 00:57:37;;;;;;;7.07;5.90;;;4.00;99.90;;;;;;5135866;27;20245;-72
2022/05/30 01:00:08;;;;;;;9.73;5.97;;;3.80;99.90;;;;;;5135700;27;20194;-72
2022/05/30 01:02:37;;;;;;;9.03;6.20;;;3.70;99.90;;;;;;5135785;27;20202;-73
2022/05/30 01:07:50;;;;;;;8.40;6.43;;;3.50;99.90;;;;;;5135692;27;20195;-72
2022/05/30 01:10:19;;;;;;;9.80;6.10;;;3.40;99.90;;;;;;5135390;27;20610;-72
2022/05/30 01:12:49;;;;;;;7.90;6.17;;;3.30;99.90;;;;;;5135594;27;20295;-72
2022/05/30 01:15:18;;;;;;;10.33;6.93;;;3.30;99.90;;;;;;5135734;27;20261;-72
2022/05/30 01:17:52;;;;;;;9.97;7.27;;;3.40;99.90;;;;;;5134459;27;20597;-73
2022/05/30 01:20:29;;;;;;;7.43;6.73;;;3.60;99.90;;;;;;5135399;27;20248;-72
2022/05/30 01:23:22;;;;;;;11.10;7.27;;;3.60;99.90;;;;;;5135239;27;20256;-72
2022/05/30 01:26:13;;;;;;;11.90;7.90;;;3.50;99.90;;;;;;5135447;27;20291;-72
2022/05/30 01:28:47;;;;;;;7.50;6.47;;;3.40;99.90;;;;;;5135262;27;20539;-72
2022/05/30 01:31:15;;;;;;;11.50;7.60;;;3.30;99.90;;;;;;5135087;27;20339;-72
2022/05/30 01:33:43;;;;;;;9.43;7.70;;;3.30;99.90;;;;;;5135214;27;20222;-72
2022/05/30 01:36:10;;;;;;;7.90;7.10;;;3.30;99.90;;;;;;5135119;27;20191;-73
2022/05/30 01:38:37;;;;;;;10.57;7.70;;;3.40;99.90;;;;;;5135081;27;20195;-72
2022/05/30 01:41:04;;;;;;;10.63;6.90;;;3.40;99.90;;;;;;5135087;27;20199;-73
2022/05/30 01:43:31;;;;;;;9.80;7.73;;;3.30;99.90;;;;;;5134854;27;20247;-72
2022/05/30 01:46:04;;;;;;;9.63;7.17;;;3.20;99.90;;;;;;5134825;27;20260;-72
2022/05/30 01:48:31;;;;;;;9.47;7.17;;;3.10;99.90;;;;;;5134897;27;20315;-72
2022/05/30 01:50:59;;;;;;;7.57;6.80;;;3.10;99.90;;;;;;5134695;27;20608;-71
2022/05/30 01:53:27;;;;;;;10.70;7.80;;;3.10;99.90;;;;;;5134589;27;20215;-71
2022/05/30 01:55:53;;;;;;;8.70;6.97;;;3.10;99.90;;;;;;5134639;27;20191;-70
2022/05/30 01:58:20;;;;;;;12.27;8.20;;;3.10;99.90;;;;;;5134453;27;20600;-71
2022/05/30 02:00:48;;;;;;;12.50;9.03;;;3.00;99.90;;;;;;5134762;27;20198;-71
2022/05/30 02:03:16;;;;;;;10.30;9.07;;;3.20;99.90;;;;;;5134280;27;20701;-71
2022/05/30 02:05:43;;;;;;;9.07;7.60;;;3.10;99.90;;;;;;5134584;27;20240;-71
2022/05/30 02:08:10;;;;;;;10.77;8.43;;;3.00;99.90;;;;;;5134499;27;20240;-71
2022/05/30 02:10:37;;;;;;;12.03;7.67;;;3.00;99.90;;;;;;5134293;27;20650;-72
2022/05/30 02:13:06;;;;;;;10.97;7.87;;;3.00;99.90;;;;;;5134190;27;20309;-72
2022/05/30 02:17:00;;;;;;;10.23;7.77;;;2.90;99.90;;;;;;5134471;27;20546;-72
2022/05/30 02:18:20;;;;;;;13.80;7.97;;;2.80;99.90;;;;;;5134227;27;20201;-72
2022/05/30 02:20:48;;;;;;;12.30;8.63;;;2.70;99.90;;;;;;5134259;27;20203;-72
2022/05/30 02:23:16;;;;;;;12.07;9.20;;;2.70;99.90;;;;;;5134132;27;20235;-72
2022/05/30 02:25:43;;;;;;;15.60;10.13;;;2.70;99.90;;;;;;5134298;27;20196;-72
2022/05/30 02:28:10;;;;;;;13.73;9.97;;;2.60;99.90;;;;;;5134684;27;20550;-72
2022/05/30 02:30:36;;;;;;;12.87;10.40;;;2.50;99.90;;;;;;5134039;27;20244;-72
2022/05/30 02:38:29;;;;;;;12.60;10.23;;;2.50;99.90;;;;;;5134034;27;20283;-72
2022/05/30 02:40:56;;;;;;;13.00;10.37;;;2.50;99.90;;;;;;5134012;27;20252;-72
2022/05/30 02:43:23;;;;;;;11.57;9.87;;;2.60;99.90;;;;;;5133783;27;20255;-72
2022/05/30 02:45:49;;;;;;;11.13;9.90;;;2.70;99.90;;;;;;5133844;27;20202;-72
2022/05/30 02:48:16;;;;;;;16.87;9.80;;;2.80;99.90;;;;;;5133729;27;20715;-72
2022/05/30 02:50:44;;;;;;;12.50;9.80;;;2.80;99.90;;;;;;5133943;27;20248;-72
2022/05/30 02:53:12;;;;;;;11.30;10.00;;;2.80;99.90;;;;;;5133816;27;20361;-72
2022/05/30 02:55:40;;;;;;;13.50;9.93;;;2.90;99.90;;;;;;5133733;27;20194;-72
2022/05/30 02:58:06;;;;;;;15.37;10.73;;;2.90;99.90;;;;;;5133723;27;20259;-73
2022/05/30 03:00:33;;;;;;;11.47;9.90;;;2.90;99.90;;;;;;5133526;28;20585;-73
2022/05/30 03:03:01;;;;;;;15.50;10.27;;;2.90;99.90;;;;;;5133425;28;20255;-72
2022/05/30 03:05:27;;;;;;;13.17;10.23;;;2.70;99.90;;;;;;5133807;28;20252;-72
2022/05/30 03:07:54;;;;;;;13.70;9.33;;;2.60;99.90;;;;;;5133665;28;20199;-72
2022/05/30 03:10:22;;;;;;;12.97;9.33;;;2.60;99.90;;;;;;5133659;28;20248;-72
2022/05/30 03:12:49;;;;;;;12.00;9.60;;;2.60;99.90;;;;;;5133519;28;20226;-72
2022/05/30 03:15:15;;;;;;;12.10;9.67;;;2.70;99.90;;;;;;5133460;28;20256;-72
2022/05/30 03:17:42;;;;;;;13.57;10.37;;;2.70;99.90;;;;;;5134196;28;20195;-72
2022/05/30 03:20:10;;;;;;;12.83;9.67;;;2.60;99.90;;;;;;5135554;28;20201;-73
2022/05/30 03:22:39;;;;;;;11.20;10.03;;;2.60;99.90;;;;;;5133636;28;20195;-73
2022/05/30 03:25:06;;;;;;;14.93;9.90;;;2.60;99.90;;;;;;5133505;28;20199;-72
2022/05/30 03:27:34;;;;;;;11.53;10.03;;;2.60;99.90;;;;;;5133452;28;20195;-72
2022/05/30 03:30:01;;;;;;;11.20;9.07;;;2.60;99.90;;;;;;5133308;28;20231;-72
2022/05/30 03:32:28;;;;;;;12.90;9.90;;;2.50;99.90;;;;;;5133575;28;20195;-72
2022/05/30 03:34:54;;;;;;;11.03;9.83;;;2.40;99.90;;;;;;5133366;28;20231;-72
2022/05/30 03:37:21;;;;;;;12.50;9.93;;;2.30;99.90;;;;;;5133210;28;20199;-72
2022/05/30 03:39:48;;;;;;;12.30;10.40;;;2.30;99.90;;;;;;5133221;28;20192;-72
2022/05/30 03:42:14;;;;;;;12.20;10.23;;;2.20;99.90;;;;;;5135569;27;20240;-72
2022/05/30 03:44:43;;;;;;;13.17;10.03;;;2.30;99.90;;;;;;5137157;27;20790;-72
2022/05/30 03:47:10;;;;;;;11.10;9.90;;;2.30;99.90;;;;;;5137417;27;20195;-72
2022/05/30 03:49:37;;;;;;;13.40;10.23;;;2.30;99.90;;;;;;5137156;27;20192;-72
2022/05/30 03:52:05;;;;;;;13.17;10.07;;;2.30;99.90;;;;;;5137250;27;20223;-72
2022/05/30 03:54:32;;;;;;;10.17;9.07;;;2.50;99.90;;;;;;5136965;27;20622;-72
2022/05/30 03:56:58;;;;;;;13.37;9.90;;;2.60;99.90;;;;;;5136960;27;20248;-72
2022/05/30 03:59:25;;;;;;;10.27;9.17;;;2.70;99.90;;;;;;5137307;27;20195;-73
2022/05/30 04:01:53;;;;;;;11.17;9.20;;;2.80;99.90;;;;;;5137074;27;20199;-72
2022/05/30 04:04:20;;;;;;;11.53;9.70;;;2.90;99.90;;;;;;5136881;27;20288;-72
2022/05/30 04:06:46;;;;;;;11.50;9.63;;;3.00;99.90;;;;;;5137006;27;20224;-72
2022/05/30 04:09:14;;;;;;;13.27;10.23;;;2.90;99.90;;;;;;5136820;27;20557;-72
2022/05/30 04:11:41;;;;;;;12.27;9.93;;;3.00;99.90;;;;;;5136635;27;20315;-72
2022/05/30 04:14:08;;;;;;;11.60;9.70;;;3.00;99.90;;;;;;5136773;27;20223;-73
2022/05/30 04:16:34;;;;;;;13.43;9.67;;;3.00;99.90;;;;;;5136724;27;20203;-72
2022/05/30 04:19:02;;;;;;;13.77;9.90;;;3.10;99.90;;;;;;5136634;27;20199;-73
2022/05/30 04:21:29;;;;;;;10.97;9.53;;;3.20;99.90;;;;;;5136584;27;20248;-72
2022/05/30 04:23:56;;;;;;;11.13;8.97;;;3.30;99.90;;;;;;5136524;27;20191;-72
2022/05/30 04:26:23;;;;;;;10.93;9.83;;;3.30;99.90;;;;;;5136346;27;20195;-72
2022/05/30 04:28:50;;;;;;;12.20;10.67;;;3.40;99.90;;;;;;5136522;27;20210;-73
2022/05/30 04:31:17;;;;;;;12.67;10.73;;;3.50;99.90;;;;;;5136372;27;20195;-72
2022/05/30 04:33:43;;;;;;;12.97;11.20;;;3.60;99.90;;;;;;5136413;27;20280;-72
2022/05/30 04:36:14;;;;;;;15.77;10.93;;;3.70;99.90;;;;;;5136198;27;20204;-72
2022/05/30 04:38:41;;;;;;;15.77;10.50;;;3.90;99.90;;;;;;5136197;27;20248;-72
2022/05/30 04:41:07;;;;;;;11.23;9.73;;;4.00;99.90;;;;;;5136349;27;20202;-72
2022/05/30 04:43:34;;;;;;;11.47;10.30;;;4.10;99.90;;;;;;5136137;27;20268;-72
2022/05/30 04:46:06;;;;;;;12.90;11.30;;;4.20;99.90;;;;;;5136154;27;20244;-73
2022/05/30 04:48:33;;;;;;;12.87;10.50;;;4.30;99.90;;;;;;5136051;27;20245;-73
2022/05/30 04:50:59;;;;;;;12.30;10.20;;;4.40;99.90;;;;;;5135966;27;20561;-72
2022/05/30 04:53:27;;;;;;;12.17;9.60;;;4.50;99.90;;;;;;5135838;27;20262;-72
2022/05/30 04:55:54;;;;;;;10.70;9.60;;;4.60;99.90;;;;;;5135952;27;20199;-73
2022/05/30 04:58:21;;;;;;;11.10;9.40;;;4.70;99.90;;;;;;5135844;27;20200;-73
2022/05/30 05:00:47;;;;;;;10.30;8.97;;;4.80;99.90;;;;;;5135794;27;20282;-72
2022/05/30 05:03:14;;;;;;;9.77;8.87;;;4.90;99.90;;;;;;5135539;27;20234;-72
2022/05/30 05:05:41;;;;;;;10.10;9.10;;;5.00;99.90;;;;;;5135508;27;20262;-72
2022/05/30 05:08:37;;;;;;;9.33;8.23;;;5.10;99.90;;;;;;5135734;27;20201;-72
2022/05/30 05:11:14;;;;;;;10.70;8.00;;;5.20;99.90;;;;;;5135454;27;20194;-74
2022/05/30 05:13:40;;;;;;;10.77;9.67;;;5.30;99.90;;;;;;5135372;27;20692;-72
2022/05/30 05:16:07;;;;;;;9.33;8.13;;;5.30;99.90;;;;;;5135403;27;20191;-72
2022/05/30 05:18:35;;;;;;;8.93;7.80;;;5.50;99.90;;;;;;5135610;27;20255;-72
2022/05/30 05:21:01;;;;;;;8.90;8.10;;;5.50;99.90;;;;;;5135255;27;20254;-72
2022/05/30 05:23:28;;;;;;;9.50;7.73;;;5.60;99.90;;;;;;5135415;27;20206;-72
2022/05/30 05:25:56;;;;;;;10.23;8.07;;;5.70;99.90;;;;;;5135269;27;20199;-72
2022/05/30 05:28:22;;;;;;;12.00;7.83;;;5.90;99.90;;;;;;5135224;27;20195;-72
2022/05/30 05:30:49;;;;;;;8.13;7.23;;;6.00;99.90;;;;;;5134880;27;20247;-72
2022/05/30 05:33:18;;;;;;;9.70;8.00;;;6.00;99.90;;;;;;5135109;27;20199;-72
2022/05/30 05:35:46;;;;;;;10.77;7.83;;;6.20;99.90;;;;;;5135212;27;20286;-73
2022/05/30 05:38:14;;;;;;;8.83;7.87;;;6.30;99.90;;;;;;5134989;27;20199;-72
2022/05/30 05:40:41;;;;;;;8.60;7.70;;;6.40;99.90;;;;;;5134948;27;20202;-72
2022/05/30 05:43:09;;;;;;;9.33;7.10;;;6.50;99.90;;;;;;5134705;27;20248;-72
2022/05/30 05:45:36;;;;;;;9.73;7.00;;;6.50;99.90;;;;;;5135638;27;20195;-72
2022/05/30 05:48:03;;;;;;;9.07;7.70;;;6.70;99.90;;;;;;5136227;27;20194;-71
2022/05/30 05:50:30;;;;;;;9.33;7.20;;;6.70;99.90;;;;;;5134917;27;20203;-72
2022/05/30 05:52:57;;;;;;;13.00;8.23;;;6.90;99.90;;;;;;5134604;27;20198;-72
2022/05/30 05:55:24;;;;;;;10.07;8.47;;;7.00;99.90;;;;;;5134336;27;20227;-72
2022/05/30 05:57:51;;;;;;;11.20;7.77;;;7.20;99.90;;;;;;5134360;27;20195;-71
2022/05/30 06:00:20;;;;;;;11.03;7.40;;;7.30;99.90;;;;;;5134640;27;20251;-71
2022/05/30 06:02:46;;;;;;;6.93;6.23;;;7.40;99.90;;;;;;5134211;27;20735;-71
2022/05/30 06:05:13;;;;;;;6.07;5.17;;;7.40;99.90;;;;;;5133945;27;20202;-72
2022/05/30 06:07:42;;;;;;;6.70;5.10;;;7.50;99.90;;;;;;5134310;27;20199;-71
2022/05/30 06:10:11;;;;;;;6.40;4.50;;;7.50;99.90;;;;;;5134455;27;20195;-71
2022/05/30 06:12:42;;;;;;;6.00;4.90;;;7.60;99.90;;;;;;5134594;27;20199;-72
2022/05/30 06:15:12;;;;;;;7.97;5.20;;;7.70;99.90;;;;;;5134461;27;20262;-71
2022/05/30 06:17:41;;;;;;;6.43;5.40;;;7.80;99.90;;;;;;5134389;27;20198;-71
2022/05/30 06:20:10;;;;;;;7.10;5.47;;;7.90;99.90;;;;;;5134245;27;20191;-71
2022/05/30 06:22:37;;;;;;;6.20;5.50;;;8.10;99.90;;;;;;5133920;27;20702;-71
2022/05/30 06:25:05;;;;;;;6.47;5.20;;;8.10;99.90;;;;;;5134014;27;20251;-71
2022/05/30 06:27:32;;;;;;;5.37;4.80;;;8.20;99.90;;;;;;5134154;27;20202;-71
2022/05/30 06:29:59;;;;;;;8.17;5.50;;;8.30;99.90;;;;;;5134132;27;20244;-71
2022/05/30 06:32:26;;;;;;;5.80;4.87;;;8.40;99.90;;;;;;5133954;27;20191;-72
2022/05/30 06:34:54;;;;;;;8.70;6.10;;;8.60;99.90;;;;;;5134129;27;20222;-71
2022/05/30 06:37:21;;;;;;;6.10;5.40;;;8.70;99.90;;;;;;5134825;27;20248;-71
2022/05/30 06:39:48;;;;;;;6.30;4.57;;;8.90;99.90;;;;;;5134221;27;20203;-72
2022/05/30 06:42:15;;;;;;;5.87;4.80;;;9.00;99.90;;;;;;5133845;27;20654;-71
2022/05/30 06:44:41;;;;;;;5.13;4.33;;;8.90;99.90;;;;;;5133994;27;20202;-71
2022/05/30 06:47:09;;;;;;;5.17;4.30;;;9.10;99.90;;;;;;5133965;27;20260;-71
2022/05/30 06:49:36;;;;;;;6.27;4.47;;;9.20;99.90;;;;;;5133643;27;20194;-72
2022/05/30 06:52:04;;;;;;;6.77;4.20;;;9.30;99.90;;;;;;5133738;27;20228;-72
2022/05/30 06:54:32;;;;;;;4.97;3.40;;;9.50;99.90;;;;;;5133853;27;20218;-71
2022/05/30 06:59:43;;;;;;;5.57;3.77;;;9.60;99.90;;;;;;5133547;27;20621;-70
2022/05/30 07:02:09;;;;;;;8.80;3.90;;;9.70;99.90;;;;;;5133472;28;20665;-71
2022/05/30 07:04:36;;;;;;;4.90;3.87;;;9.80;99.90;;;;;;5133289;28;20291;-71
2022/05/30 07:07:06;;;;;;;4.33;3.60;;;9.80;99.90;;;;;;5133762;28;20203;-71
2022/05/30 07:09:32;;;;;;;5.97;3.73;;;9.90;99.90;;;;;;5133614;28;20198;-71
2022/05/30 07:11:59;;;;;;;5.33;3.60;;;10.00;99.90;;;;;;5133488;28;20221;-71
2022/05/30 07:14:26;;;;;;;4.57;3.20;;;10.20;99.90;;;;;;5133388;28;20211;-71
2022/05/30 07:16:52;;;;;;;3.47;3.17;;;10.40;99.90;;;;;;5136849;27;20670;-71
2022/05/30 07:19:19;;;;;;;6.67;3.43;;;10.40;99.90;;;;;;5137530;27;20203;-71
2022/05/30 07:21:46;;;;;;;6.03;3.13;;;10.50;99.90;;;;;;5137614;27;20190;-71
2022/05/30 07:24:14;;;;;;;4.90;3.13;;;10.50;99.90;;;;;;5137590;27;20617;-71
2022/05/30 07:26:41;;;;;;;5.03;2.33;;;10.70;99.90;;;;;;5137683;27;20199;-71
2022/05/30 07:29:09;;;;;;;3.00;2.67;;;10.70;99.90;;;;;;5137586;27;20199;-71
2022/05/30 07:31:35;;;;;;;4.87;2.50;;;10.60;99.90;;;;;;5137360;27;20199;-71
2022/05/30 07:34:02;;;;;;;5.50;2.73;;;10.70;99.90;;;;;;5137402;27;20199;-71
2022/05/30 07:36:31;;;;;;;3.03;2.57;;;10.90;99.90;;;;;;5137429;27;20199;-71
2022/05/30 07:38:58;;;;;;;5.50;2.50;;;11.10;99.90;;;;;;5137479;27;20560;-71
2022/05/30 07:41:29;;;;;;;4.20;2.20;;;11.30;99.90;;;;;;5137177;27;20718;-71
2022/05/30 07:43:56;;;;;;;2.87;2.20;;;11.50;99.90;;;;;;5137116;27;20199;-71
2022/05/30 07:46:25;;;;;;;5.50;2.80;;;11.70;99.90;;;;;;5137121;27;20199;-71
2022/05/30 07:48:52;;;;;;;4.83;2.60;;;11.80;99.90;;;;;;5137142;27;20195;-71
2022/05/30 07:51:19;;;;;;;3.40;2.40;;;12.20;99.90;;;;;;5136986;27;20244;-71
2022/05/30 07:53:46;;;;;;;3.60;2.20;;;12.40;99.90;;;;;;5136728;27;20199;-71
2022/05/30 07:56:15;;;;;;;3.23;2.10;;;12.70;99.90;;;;;;5136698;27;20279;-71
2022/05/30 07:58:43;;;;;;;5.17;2.20;;;12.70;99.90;;;;;;5136665;27;20199;-71
2022/05/30 08:01:13;;;;;;;5.07;2.20;;;12.90;99.90;;;;;;5136787;27;20594;-71
2022/05/30 08:03:40;;;;;;;4.40;2.27;;;13.20;99.90;;;;;;5136748;27;20758;-71
2022/05/30 08:06:09;;;;;;;4.27;2.37;;;13.50;99.90;;;;;;5136864;27;20246;-71
2022/05/30 08:08:36;;;;;;;4.40;2.50;;;13.60;99.90;;;;;;5136728;27;20551;-72
2022/05/30 08:11:03;;;;;;;7.90;2.60;;;13.70;99.90;;;;;;5137115;27;20191;-71
2022/05/30 08:13:29;;;;;;;4.33;2.30;;;13.90;99.90;;;;;;5136774;27;20195;-71
2022/05/30 08:15:58;;;;;;;3.50;2.10;;;14.20;99.90;;;;;;5136433;27;20222;-71
2022/05/30 08:18:24;;;;;;;3.97;2.30;;;13.90;98.30;;;;;;5136529;27;20235;-71
2022/05/30 08:20:51;;;;;;;4.97;2.70;;;14.10;98.60;;;;;;5136194;27;20248;-71
2022/05/30 08:23:18;;;;;;;4.17;2.70;;;13.90;97.30;;;;;;5136438;27;20195;-71
2022/05/30 08:25:47;;;;;;;3.77;2.40;;;14.40;99.80;;;;;;5136297;27;20294;-71
2022/05/30 08:28:14;;;;;;;2.63;2.33;;;14.90;99.90;;;;;;5135783;27;20199;-71
2022/05/30 08:30:41;;;;;;;3.67;2.40;;;15.40;95.40;;;;;;5136214;27;20539;-72
2022/05/30 08:33:11;;;;;;;3.33;2.10;;;15.30;92.20;;;;;;5136094;27;20596;-71
2022/05/30 08:35:38;;;;;;;6.20;2.97;;;15.50;93.90;;;;;;5136249;27;20215;-72
2022/05/30 08:38:05;;;;;;;6.33;2.90;;;16.20;94.40;;;;;;5135922;27;20220;-72
2022/05/30 08:43:25;;;;;;;4.00;2.22;;;16.80;81.10;;;;;;5135957;27;20194;-72
2022/05/30 08:45:57;;;;;;;4.95;2.47;;;17.10;74.30;;;;;;5136090;27;20194;-72
2022/05/30 08:48:36;;;;;;;4.07;2.30;;;17.00;66.30;;;;;;5135807;27;20286;-72
2022/05/30 08:51:15;;;;;;;3.25;2.40;;;17.10;65.00;;;;;;5135997;27;20198;-72
2022/05/30 08:53:54;;;;;;;5.93;2.67;;;16.40;66.10;;;;;;5135941;27;20535;-72
2022/05/30 08:56:24;;;;;;;3.33;2.30;;;15.60;63.80;;;;;;5135777;27;20226;-72
2022/05/30 08:59:06;;;;;;;3.20;2.50;;;14.90;63.80;;;;;;5135773;27;20195;-72
2022/05/30 09:01:36;;;;;;;3.43;2.27;;;15.00;66.10;;;;;;5135707;27;20658;-73
2022/05/30 09:04:09;;;;;;;3.73;2.27;;;15.90;66.10;;;;;;5135740;27;20226;-71
2022/05/30 09:06:42;;;;;;;3.80;2.30;;;16.60;67.10;;;;;;5135737;27;20559;-71
2022/05/30 09:09:15;;;;;;;3.45;2.30;;;16.70;62.00;;;;;;5135720;27;20203;-72
2022/05/30 09:11:46;;;;;;;2.53;2.08;;;17.30;63.70;;;;;;5135449;27;20252;-72
2022/05/30 09:14:16;;;;;;;3.47;2.05;;;18.20;61.30;;;;;;5135677;27;20195;-72
2022/05/30 09:16:47;;;;;;;2.90;2.22;;;18.70;59.70;;;;;;5135898;27;20223;-72
2022/05/30 09:19:17;;;;;;;3.20;2.58;;;18.90;52.90;;;;;;5135403;27;20252;-72
2022/05/30 09:21:44;;;;;;;4.25;2.67;;;19.00;50.70;;;;;;5135215;27;20228;-72
2022/05/30 09:24:14;;;;;;;3.75;2.30;;;19.10;51.80;;;;;;5135037;27;20723;-72
2022/05/30 09:26:41;;;;;;;7.20;3.03;;;20.40;50.20;;;;;;5135406;27;20215;-72
2022/05/30 09:29:14;;;;;;;5.55;2.92;;;19.70;46.90;;;;;;5135150;27;20251;-73
2022/05/30 09:31:52;;;;;;;4.03;2.20;;;19.40;44.40;;;;;;5135047;27;20191;-72
2022/05/30 09:34:33;;;;;;;3.90;2.60;;;19.20;41.30;;;;;;5134841;27;20194;-72
2022/05/30 09:37:00;;;;;;;3.10;2.10;;;19.40;43.40;;;;;;5135227;27;20198;-72
2022/05/30 09:39:26;;;;;;;3.60;1.92;;;20.40;42.70;;;;;;5134019;27;20714;-73
2022/05/30 09:41:56;;;;;;;3.05;2.20;;;20.30;38.70;;;;;;5135134;27;20199;-72
2022/05/30 09:44:26;;;;;;;3.80;1.80;;;19.80;40.40;;;;;;5135176;27;20199;-72
2022/05/30 09:46:56;;;;;;;4.20;2.47;;;19.20;41.10;;;;;;5134743;27;20557;-72
2022/05/30 09:49:25;;;;;;;3.20;2.30;;;19.10;40.90;;;;;;5135018;27;20203;-72
2022/05/30 09:51:55;;;;;;;3.13;2.28;;;19.30;42.60;;;;;;5135091;27;20195;-72
2022/05/30 09:54:34;;;;;;;3.63;2.38;;;19.60;41.10;;;;;;5135033;27;20206;-73
2022/05/30 09:57:07;;;;;;;3.85;2.40;;;20.50;39.70;;;;;;5134690;27;20672;-73
2022/05/30 09:59:35;;;;;;;4.32;2.30;;;19.90;38.30;;;;;;5134567;27;20198;-73
2022/05/30 10:02:03;;;;;;;3.92;2.15;;;19.00;38.50;;;;;;5134692;27;20199;-73
2022/05/30 10:04:36;;;;;;;4.53;1.73;;;18.60;40.10;;;;;;5134265;27;20229;-73
2022/05/30 10:07:09;;;;;;;4.10;2.38;;;18.80;41.90;;;;;;5134458;27;20238;-73
2022/05/30 10:09:41;;;;;;;3.33;2.10;;;18.90;42.60;;;;;;5134261;27;20195;-72
2022/05/30 10:12:09;;;;;;;3.17;2.15;;;19.30;41.30;;;;;;5134284;27;20195;-73
2022/05/30 10:14:39;;;;;;;3.97;2.10;;;19.20;42.30;;;;;;5134170;27;20660;-73
2022/05/30 10:17:14;;;;;;;2.88;2.22;;;19.20;43.40;;;;;;5134234;27;20202;-73
2022/05/30 10:19:47;;;;;;;2.45;2.10;;;18.60;40.80;;;;;;5134164;27;20202;-73
2022/05/30 10:28:28;;;;;;;5.22;2.22;;;17.40;40.10;;;;;;5134157;27;20194;-73
2022/05/30 10:31:07;;;;;;;3.30;1.95;;;16.80;41.00;;;;;;5133964;27;20600;-73
2022/05/30 10:33:57;;;;;;;2.65;2.28;;;16.50;41.40;;;;;;5134040;27;20203;-72
2022/05/30 10:36:32;;;;;;;4.07;2.10;;;16.70;41.40;;;;;;5133937;27;20268;-71
2022/05/30 10:39:12;;;;;;;3.60;2.05;;;16.70;40.40;;;;;;5133742;27;20240;-72
2022/05/30 10:41:47;;;;;;;2.80;2.03;;;16.60;42.00;;;;;;5134130;27;20259;-72
2022/05/30 10:44:21;;;;;;;2.67;2.10;;;17.00;41.70;;;;;;5133949;27;20202;-72
2022/05/30 10:46:56;;;;;;;5.38;2.25;;;17.20;40.80;;;;;;5133639;27;20677;-73
2022/05/30 10:49:26;;;;;;;2.55;1.80;;;17.30;41.60;;;;;;5133626;27;20218;-72
2022/05/30 10:51:58;;;;;;;4.43;1.98;;;17.50;40.30;;;;;;5133357;27;20699;-72
2022/05/30 10:54:33;;;;;;;4.47;2.40;;;17.90;40.60;;;;;;5133820;27;20205;-72
2022/05/30 10:57:11;;;;;;;3.55;1.90;;;18.10;39.20;;;;;;5133661;27;20226;-72
2022/05/30 10:59:41;;;;;;;3.58;2.15;;;17.90;39.40;;;;;;5133552;27;20199;-72
2022/05/30 11:02:22;;;;;;;2.67;2.08;;;18.50;40.00;;;;;;5133395;27;20612;-72
2022/05/30 11:04:53;;;;;;;4.18;2.17;;;18.10;40.40;;;;;;5133352;28;20269;-73
2022/05/30 11:07:38;;;;;;;2.33;2.13;;;18.90;40.10;;;;;;5133520;28;20259;-73
2022/05/30 11:10:18;;;;;;;2.60;1.90;;;19.30;40.40;;;;;;5133448;28;20243;-73
2022/05/30 11:12:53;;;;;;;3.25;1.92;;;19.60;39.00;;;;;;5133600;28;20216;-72
2022/05/30 11:15:26;;;;;;;5.00;2.40;;;19.60;38.00;;;;;;5133275;28;20738;-73
2022/05/30 11:18:02;;;;;;;3.88;2.20;;;19.80;39.60;;;;;;5133459;28;20281;-72
2022/05/30 11:20:33;;;;;;;2.40;1.80;;;20.90;38.00;;;;;;5133373;28;20339;-73
2022/05/30 11:23:00;;;;;;;1.88;1.77;;;23.40;35.80;;;;;;5133402;28;20202;-73
2022/05/30 11:25:55;;;;;;;2.13;1.90;;;25.10;31.70;;;;;;5133595;28;20600;-73
2022/05/30 11:28:32;;;;;;;3.65;2.00;;;26.30;27.80;;;;;;5119496;28;20199;-73
2022/05/30 11:31:06;;;;;;;2.45;1.90;;;23.60;25.90;;;;;;5133319;28;20195;-73
2022/05/30 11:33:47;;;;;;;2.97;2.20;;;24.30;27.60;;;;;;5133521;28;20251;-73
2022/05/30 11:36:42;;;;;;;2.28;1.98;;;24.90;25.80;;;;;;5133290;28;20229;-74
2022/05/30 11:39:28;;;;;;;3.60;1.88;;;23.30;24.90;;;;;;5133313;28;20247;-73
2022/05/30 11:42:05;;;;;;;2.83;1.70;;;23.20;24.20;;;;;;5133203;28;20192;-73
2022/05/30 11:44:49;;;;;;;2.97;2.15;;;22.70;24.70;;;;;;5133014;28;20251;-73
2022/05/30 11:47:32;;;;;;;3.13;1.73;;;23.70;24.60;;;;;;5133251;28;20270;-73
2022/05/30 11:50:18;;;;;;;5.40;3.42;;;23.40;24.00;;;;;;5133070;28;20199;-77
2022/05/30 11:53:11;;;;;;;4.20;1.60;;;25.80;23.70;;;;;;5133405;28;20199;-77
2022/05/30 11:55:44;;;;;;;2.53;1.73;;;24.00;22.00;;;;;;5133080;28;20218;-77
2022/05/30 11:58:19;;;;;;;2.95;2.25;;;21.50;23.10;;;;;;5133007;28;20229;-77
2022/05/30 12:00:48;;;;;;;2.45;1.80;;;23.00;25.00;;;;;;5133290;28;20251;-77
2022/05/30 12:03:55;;;;;;;3.33;1.85;;;24.30;23.40;;;;;;5135016;27;20556;-73
2022/05/30 12:06:43;;;;;;;2.67;2.10;;;25.80;22.20;;;;;;5136328;27;20202;-73
2022/05/30 12:09:34;;;;;;;2.92;1.98;;;25.50;20.90;;;;;;5136873;27;20202;-73
2022/05/30 12:12:40;;;;;;;2.85;1.90;;;23.20;21.90;;;;;;5136323;27;20199;-73
2022/05/30 12:15:46;;;;;;;2.33;2.13;;;22.20;22.70;;;;;;5136447;27;20247;-73
2022/05/30 12:24:34;;;;;;;2.40;2.20;;;22.10;23.60;;;;;;5136506;27;20238;-73
2022/05/30 12:27:35;;;;;;;3.72;2.22;;;22.00;23.70;;;;;;5136348;27;20263;-72
2022/05/30 12:30:04;;;;;;;2.75;1.90;;;20.50;25.50;;;;;;5130276;27;20669;-72
2022/05/30 12:32:38;;;;;;;2.95;2.10;;;20.60;26.00;;;;;;5136429;27;20194;-73
2022/05/30 12:35:21;;;;;;;2.33;2.05;;;20.10;25.90;;;;;;5136309;27;20195;-72
2022/05/30 12:37:49;;;;;;;2.33;2.13;;;19.90;26.40;;;;;;5136191;27;20319;-74
2022/05/30 12:40:33;;;;;;;1.67;1.58;;;19.70;26.70;;;;;;5135948;27;20543;-72
2022/05/30 12:43:06;;;;;;;3.25;1.90;;;20.10;26.90;;;;;;5136121;27;20346;-73
2022/05/30 12:45:40;;;;;;;3.17;1.90;;;20.70;26.10;;;;;;5136093;27;20206;-73
2022/05/30 12:48:17;;;;;;;3.25;2.08;;;19.80;26.50;;;;;;5135847;27;20199;-73
2022/05/30 12:51:00;;;;;;;3.22;1.85;;;19.90;26.50;;;;;;5136102;27;20282;-73
2022/05/30 12:54:05;;;;;;;2.38;1.88;;;20.40;25.50;;;;;;5135994;27;20220;-73
2022/05/30 12:57:02;;;;;;;2.45;1.83;;;22.50;24.70;;;;;;5135686;27;20218;-73
2022/05/30 12:59:33;;;;;;;2.22;2.00;;;22.50;23.30;;;;;;5135892;27;20264;-73
2022/05/30 13:02:01;;;;;;;6.40;2.13;;;21.70;23.50;;;;;;5135765;27;20202;-73
2022/05/30 13:04:31;;;;;;;2.38;1.88;;;21.50;24.00;;;;;;5135507;27;20230;-73
2022/05/30 13:07:15;;;;;;;2.22;1.90;;;22.20;24.50;;;;;;5135491;27;20195;-73
2022/05/30 13:09:43;;;;;;;2.13;1.70;;;23.10;24.20;;;;;;5136007;27;20195;-73
2022/05/30 13:12:22;;;;;;;19.52;2.78;;;22.90;23.00;;;;;;5136039;27;20202;-73
2022/05/30 13:15:14;;;;;;;2.78;1.98;;;21.30;23.60;;;;;;5135568;27;20195;-73
2022/05/30 13:17:57;;;;;;;4.50;2.05;;;21.20;23.80;;;;;;5135625;27;20256;-73
2022/05/30 13:20:28;;;;;;;4.13;2.03;;;20.30;23.80;;;;;;5135479;27;20208;-73
2022/05/30 13:22:56;;;;;;;2.60;1.80;;;20.20;24.70;;;;;;5135393;27;20198;-72
2022/05/30 13:25:28;;;;;;;2.83;2.10;;;20.30;24.00;;;;;;5135176;27;20194;-73
2022/05/30 13:28:02;;;;;;;2.03;1.83;;;20.60;24.60;;;;;;5135276;27;20196;-73
2022/05/30 13:30:30;;;;;;;2.75;2.10;;;20.50;24.10;;;;;;5135143;27;20603;-72
2022/05/30 13:32:57;;;;;;;4.50;1.95;;;19.90;25.10;;;;;;5135167;27;20615;-72